createdAt,value
2023-03-06T00:02:48.240Z,16.10
2023-03-06T00:05:51.036Z,15.63
2023-03-06T00:08:54.435Z,14.48
2023-03-06T00:11:57.222Z,14.07
2023-03-06T00:14:59.937Z,16.05
2023-03-06T00:18:06.514Z,13.52
2023-03-06T00:21:09.422Z,15.50
2023-03-06T00:24:12.093Z,14.30
2023-03-06T00:27:15.214Z,13.88
2023-03-06T00:30:21.193Z,13.02
2023-03-06T00:33:24.040Z,14.48
2023-03-06T00:36:29.006Z,14.10
2023-03-06T00:39:31.878Z,18.50
2023-03-06T00:42:34.717Z,17.05
2023-03-06T00:45:37.708Z,13.80
2023-03-06T00:48:40.601Z,20.15
2023-03-06T00:51:43.359Z,14.83
2023-03-06T00:54:46.049Z,13.60
2023-03-06T00:57:48.987Z,15.70
2023-03-06T01:00:51.815Z,17.35
2023-03-06T01:03:54.719Z,16.77
2023-03-06T01:06:57.596Z,14.90
2023-03-06T01:10:00.572Z,19.85
2023-03-06T01:13:03.398Z,18.38
2023-03-06T01:16:12.621Z,17.88
2023-03-06T01:19:16.892Z,15.43
2023-03-06T01:22:20.815Z,15.03
2023-03-06T01:25:25.185Z,14.65
2023-03-06T01:28:27.915Z,20.80
2023-03-06T01:31:31.644Z,16.33
2023-03-06T01:34:34.496Z,15.00
2023-03-06T01:37:38.218Z,13.37
2023-03-06T01:40:41.446Z,14.07
2023-03-06T01:43:46.479Z,15.38
2023-03-06T01:46:49.323Z,14.25
2023-03-06T01:49:52.351Z,14.98
2023-03-06T01:52:59.908Z,16.63
2023-03-06T01:56:02.911Z,16.25
2023-03-06T01:59:07.644Z,14.85
2023-03-06T02:02:12.886Z,20.65
2023-03-06T02:05:15.849Z,19.70
2023-03-06T02:08:21.857Z,19.97
2023-03-06T02:11:25.151Z,25.42
2023-03-06T02:14:29.390Z,27.55
2023-03-06T02:17:34.967Z,27.30
2023-03-06T02:20:44.612Z,24.65
2023-03-06T02:23:56.236Z,24.93
2023-03-06T02:27:01.310Z,24.90
2023-03-06T02:30:11.105Z,26.13
2023-03-06T02:33:16.318Z,24.42
2023-03-06T02:36:19.064Z,19.52
2023-03-06T02:39:28.358Z,20.53
2023-03-06T02:42:31.493Z,17.15
2023-03-06T02:45:36.286Z,16.73
2023-03-06T02:48:39.190Z,17.33
2023-03-06T02:51:42.050Z,15.35
2023-03-06T02:54:44.886Z,20.07
2023-03-06T02:57:47.896Z,16.48
2023-03-06T03:00:51.050Z,16.00
2023-03-06T03:03:55.277Z,17.52
2023-03-06T03:06:58.248Z,19.83
2023-03-06T03:10:01.560Z,20.17
2023-03-06T03:13:05.193Z,21.65
2023-03-06T03:16:16.420Z,27.88
2023-03-06T03:19:20.321Z,20.40
2023-03-06T03:22:23.197Z,21.38
2023-03-06T03:25:26.580Z,24.17
2023-03-06T03:28:32.098Z,23.77
2023-03-06T03:31:34.880Z,19.80
2023-03-06T03:34:38.649Z,20.35
2023-03-06T03:37:41.999Z,18.88
2023-03-06T03:40:45.229Z,18.10
2023-03-06T03:43:48.640Z,18.42
2023-03-06T03:46:51.527Z,16.95
2023-03-06T03:49:57.605Z,14.93
2023-03-06T03:53:01.023Z,14.82
2023-03-06T03:56:04.686Z,18.03
2023-03-06T03:59:10.575Z,20.77
2023-03-06T04:02:21.968Z,17.88
2023-03-06T04:05:42.569Z,29.55
2023-03-06T04:08:47.958Z,24.25
2023-03-06T04:11:51.083Z,24.47
2023-03-06T04:14:54.575Z,18.58
2023-03-06T04:17:58.174Z,20.27
2023-03-06T04:21:03.532Z,20.45
2023-03-06T04:24:07.340Z,23.42
2023-03-06T04:27:10.844Z,25.57
2023-03-06T04:30:13.859Z,18.65
2023-03-06T04:33:17.744Z,17.05
2023-03-06T04:36:32.671Z,18.30
2023-03-06T04:39:40.885Z,17.80
2023-03-06T04:42:43.647Z,19.17
2023-03-06T04:45:46.511Z,20.08
2023-03-06T04:48:49.355Z,18.08
2023-03-06T04:51:52.092Z,18.98
2023-03-06T04:54:54.789Z,19.80
2023-03-06T04:57:57.654Z,19.63
2023-03-06T05:01:00.446Z,23.42
2023-03-06T05:04:03.399Z,21.63
2023-03-06T05:07:06.126Z,21.55
2023-03-06T05:10:12.959Z,21.85
2023-03-06T05:13:15.797Z,19.77
2023-03-06T05:16:18.898Z,17.30
2023-03-06T05:19:21.756Z,22.13
2023-03-06T05:22:24.762Z,24.67
2023-03-06T05:25:27.483Z,22.83
2023-03-06T05:28:30.343Z,30.60
2023-03-06T05:31:33.268Z,28.25
2023-03-06T05:34:36.009Z,27.25
2023-03-06T05:37:38.791Z,29.35
2023-03-06T05:40:44.005Z,30.40
2023-03-06T05:43:46.764Z,23.63
2023-03-06T05:46:50.896Z,29.20
2023-03-06T05:49:53.605Z,26.15
2023-03-06T05:52:56.395Z,27.15
2023-03-06T05:56:02.023Z,27.65
2023-03-06T05:59:04.870Z,26.47
2023-03-06T06:02:08.174Z,27.55
2023-03-06T06:05:13.066Z,26.45
2023-03-06T06:08:16.269Z,25.00
2023-03-06T06:11:20.898Z,21.88
2023-03-06T06:14:23.695Z,24.60
2023-03-06T06:17:26.493Z,25.77
2023-03-06T06:20:29.177Z,22.00
2023-03-06T06:23:31.998Z,18.75
2023-03-06T06:26:34.945Z,18.98
2023-03-06T06:29:37.993Z,25.17
2023-03-06T06:32:40.768Z,27.67
2023-03-06T06:35:43.553Z,27.20
2023-03-06T06:38:46.331Z,24.63
2023-03-06T06:42:05.665Z,29.83
2023-03-06T06:45:13.167Z,34.93
2023-03-06T06:48:17.805Z,36.65
2023-03-06T06:51:22.762Z,43.33
2023-03-06T06:54:25.761Z,46.00
2023-03-06T06:57:28.510Z,53.75
2023-03-06T07:00:31.277Z,51.27
2023-03-06T07:03:34.650Z,47.90
2023-03-06T07:06:37.502Z,45.33
2023-03-06T07:09:40.497Z,47.15
2023-03-06T07:12:43.793Z,32.15
2023-03-06T07:15:46.738Z,30.87
2023-03-06T07:18:49.532Z,29.67
2023-03-06T07:21:52.352Z,31.88
2023-03-06T07:24:55.126Z,39.95
2023-03-06T07:27:57.961Z,37.03
2023-03-06T07:31:00.786Z,37.80
2023-03-06T07:34:05.008Z,35.92
2023-03-06T07:37:07.938Z,32.00
2023-03-06T07:40:12.491Z,29.20
2023-03-06T07:43:19.484Z,29.33
2023-03-06T07:46:29.907Z,30.67
2023-03-06T07:49:35.067Z,22.67
2023-03-06T07:52:38.279Z,22.48
2023-03-06T07:55:41.709Z,23.35
2023-03-06T07:58:45.933Z,24.00
2023-03-06T08:01:48.769Z,22.87
2023-03-06T08:04:53.504Z,22.60
2023-03-06T08:07:56.279Z,25.00
2023-03-06T08:10:58.954Z,21.00
2023-03-06T08:14:01.825Z,20.35
2023-03-06T08:17:04.762Z,18.23
2023-03-06T08:20:08.642Z,17.75
2023-03-06T08:23:12.117Z,20.77
2023-03-06T08:26:24.230Z,20.98
2023-03-06T08:29:28.171Z,26.85
2023-03-06T08:32:31.014Z,21.70
2023-03-06T08:35:33.894Z,21.77
2023-03-06T08:38:36.804Z,17.20
2023-03-06T08:41:40.552Z,17.85
2023-03-06T08:44:43.408Z,18.48
2023-03-06T08:47:46.185Z,21.87
2023-03-06T08:50:49.361Z,18.17
2023-03-06T08:53:52.902Z,18.30
2023-03-06T08:56:55.684Z,19.88
2023-03-06T08:59:58.726Z,18.38
2023-03-06T09:03:01.466Z,19.97
2023-03-06T09:06:04.315Z,19.63
2023-03-06T09:09:08.317Z,22.70
2023-03-06T09:12:11.169Z,18.40
2023-03-06T09:15:14.336Z,18.33
2023-03-06T09:18:17.058Z,15.70
2023-03-06T09:21:23.259Z,18.17
2023-03-06T09:24:26.127Z,18.88
2023-03-06T09:27:29.069Z,18.95
2023-03-06T09:30:31.963Z,16.05
2023-03-06T09:33:34.887Z,17.10
2023-03-06T09:36:54.986Z,14.95
2023-03-06T09:39:59.309Z,11.52
2023-03-06T09:43:02.187Z,13.10
2023-03-06T09:46:24.568Z,14.13
2023-03-06T09:49:49.037Z,12.90
2023-03-06T09:53:16.454Z,14.07
2023-03-06T09:56:30.244Z,13.98
2023-03-06T09:59:33.630Z,13.95
2023-03-06T10:02:44.749Z,13.80
2023-03-06T10:05:55.369Z,14.60
2023-03-06T10:09:15.329Z,14.73
2023-03-06T10:12:28.643Z,14.27
2023-03-06T10:15:38.713Z,14.15
2023-03-06T10:18:41.682Z,14.77
2023-03-06T10:21:55.705Z,15.70
2023-03-06T10:25:16.411Z,14.75
2023-03-06T10:28:25.233Z,15.38
2023-03-06T10:31:28.894Z,13.27
2023-03-06T10:34:37.685Z,16.05
2023-03-06T10:37:40.354Z,16.07
2023-03-06T10:41:01.021Z,15.02
2023-03-06T10:44:03.918Z,18.23
2023-03-06T10:47:29.518Z,15.13
2023-03-06T10:50:32.392Z,18.38
2023-03-06T10:53:35.272Z,17.40
2023-03-06T10:56:40.760Z,16.48
2023-03-06T10:59:58.371Z,16.65
2023-03-06T11:03:16.372Z,17.00
2023-03-06T11:06:37.064Z,15.15
2023-03-06T11:09:40.273Z,17.43
2023-03-06T11:12:44.316Z,17.15
2023-03-06T11:16:25.646Z,18.92
2023-03-06T11:19:29.866Z,17.65
2023-03-06T11:22:33.033Z,19.05
2023-03-06T11:25:50.538Z,15.00
2023-03-06T11:29:17.796Z,19.10
2023-03-06T11:32:24.294Z,17.60
2023-03-06T11:35:35.902Z,15.52
2023-03-06T11:38:50.543Z,16.40
2023-03-06T11:42:20.799Z,17.50
2023-03-06T11:45:45.079Z,17.65
2023-03-06T11:49:26.323Z,18.88
2023-03-06T11:52:44.590Z,17.13
2023-03-06T11:56:02.360Z,16.35
2023-03-06T11:59:42.299Z,19.63
2023-03-06T12:03:04.315Z,18.13
2023-03-06T12:06:09.713Z,19.70
2023-03-06T12:09:12.572Z,18.63
2023-03-06T12:12:27.516Z,16.80
2023-03-06T12:15:51.238Z,18.10
2023-03-06T12:18:56.735Z,16.92
2023-03-06T12:22:21.399Z,17.13
2023-03-06T12:25:32.907Z,17.25
2023-03-06T12:28:54.658Z,21.77
2023-03-06T12:32:14.983Z,18.00
2023-03-06T12:35:23.550Z,21.85
2023-03-06T12:38:49.634Z,20.50
2023-03-06T12:42:23.492Z,17.58
2023-03-06T12:45:33.266Z,21.55
2023-03-06T12:48:39.068Z,26.10
2023-03-06T12:51:44.612Z,23.27
2023-03-06T12:54:47.695Z,18.70
2023-03-06T12:57:50.850Z,19.98
2023-03-06T13:01:04.186Z,20.20
2023-03-06T13:04:20.169Z,15.47
2023-03-06T13:07:29.412Z,17.92
2023-03-06T13:10:34.776Z,19.73
2023-03-06T13:13:48.488Z,16.13
2023-03-06T13:16:51.724Z,16.50
2023-03-06T13:20:13.300Z,19.67
2023-03-06T13:23:42.745Z,13.43
2023-03-06T13:26:45.438Z,17.83
2023-03-06T13:29:50.972Z,17.60
2023-03-06T13:32:55.023Z,19.25
2023-03-06T13:35:59.324Z,18.30
2023-03-06T13:39:13.886Z,17.98
2023-03-06T13:42:26.632Z,19.90
2023-03-06T13:45:46.072Z,16.95
2023-03-06T13:49:08.844Z,18.48
2023-03-06T13:52:55.924Z,21.83
2023-03-06T13:56:28.914Z,19.10
2023-03-06T14:00:16.662Z,16.88
2023-03-06T14:03:40.596Z,20.45
2023-03-06T14:07:07.329Z,23.33
2023-03-06T14:10:24.928Z,21.63
2023-03-06T14:13:50.774Z,18.05
2023-03-06T14:16:53.927Z,23.35
2023-03-06T14:20:01.768Z,20.67
2023-03-06T14:23:27.914Z,23.42
2023-03-06T14:26:40.931Z,20.47
2023-03-06T14:29:44.654Z,22.10
2023-03-06T14:32:50.083Z,18.83
2023-03-06T14:36:00.759Z,16.38
2023-03-06T14:39:29.718Z,20.88
2023-03-06T14:42:32.986Z,22.87
2023-03-06T14:45:35.879Z,20.20
2023-03-06T14:48:44.416Z,21.08
2023-03-06T14:51:52.434Z,21.83
2023-03-06T14:54:55.571Z,20.08
2023-03-06T14:58:13.609Z,25.77
2023-03-06T15:01:21.763Z,26.70
2023-03-06T15:04:30.509Z,26.10
2023-03-06T15:07:34.045Z,20.00
2023-03-06T15:10:37.567Z,28.35
2023-03-06T15:13:40.554Z,25.93
2023-03-06T15:16:43.397Z,21.08
2023-03-06T15:19:54.334Z,21.15
2023-03-06T15:22:57.066Z,20.75
2023-03-06T15:26:03.705Z,19.77
2023-03-06T15:29:10.300Z,19.40
2023-03-06T15:32:25.611Z,23.38
2023-03-06T15:35:34.661Z,19.40
2023-03-06T15:38:42.801Z,19.33
2023-03-06T15:41:46.500Z,16.17
2023-03-06T15:44:53.221Z,15.27
2023-03-06T15:47:56.135Z,16.67
2023-03-06T15:50:59.020Z,20.85
2023-03-06T15:54:11.820Z,19.58
2023-03-06T15:57:35.414Z,19.27
2023-03-06T16:00:40.216Z,29.13
2023-03-06T16:03:43.604Z,35.00
2023-03-06T16:06:46.574Z,32.20
2023-03-06T16:09:49.548Z,24.63
2023-03-06T16:12:56.674Z,22.98
2023-03-06T16:15:59.612Z,22.93
2023-03-06T16:19:06.067Z,27.00
2023-03-06T16:22:10.651Z,22.10
2023-03-06T16:25:14.615Z,27.13
2023-03-06T16:28:18.100Z,30.52
2023-03-06T16:31:21.057Z,30.93
2023-03-06T16:34:24.288Z,32.75
2023-03-06T16:37:27.070Z,30.85
2023-03-06T16:40:38.062Z,27.70
2023-03-06T16:43:40.851Z,22.27
2023-03-06T16:46:46.090Z,21.67
2023-03-06T16:49:50.021Z,23.70
2023-03-06T16:52:54.702Z,20.38
2023-03-06T16:55:57.523Z,25.20
2023-03-06T16:59:00.309Z,23.85
2023-03-06T17:02:07.574Z,28.77
2023-03-06T17:05:11.806Z,42.17
2023-03-06T17:08:14.777Z,46.33
2023-03-06T17:11:20.381Z,43.65
2023-03-06T17:14:23.165Z,49.03
2023-03-06T17:17:26.048Z,39.93
2023-03-06T17:20:29.109Z,51.45
2023-03-06T17:23:32.181Z,55.38
2023-03-06T17:26:40.293Z,46.58
2023-03-06T17:29:43.590Z,39.80
2023-03-06T17:32:46.441Z,47.97
2023-03-06T17:35:50.636Z,41.97
2023-03-06T17:38:58.203Z,33.70
2023-03-06T17:42:01.459Z,30.00
2023-03-06T17:45:05.172Z,26.08
2023-03-06T17:48:08.036Z,27.33
2023-03-06T17:51:11.821Z,22.52
2023-03-06T17:54:14.703Z,27.95
2023-03-06T17:57:17.681Z,25.70
2023-03-06T18:00:21.261Z,25.65
2023-03-06T18:03:24.354Z,29.60
2023-03-06T18:06:30.259Z,18.55
2023-03-06T18:09:33.059Z,22.00
2023-03-06T18:12:36.396Z,22.42
2023-03-06T18:15:41.106Z,19.10
2023-03-06T18:18:45.026Z,15.40
2023-03-06T18:21:48.084Z,15.48
2023-03-06T18:24:52.246Z,14.55
2023-03-06T18:27:55.193Z,15.32
2023-03-06T18:30:57.988Z,15.38
2023-03-06T18:34:03.217Z,14.43
2023-03-06T18:37:06.319Z,13.65
2023-03-06T18:40:09.982Z,15.60
2023-03-06T18:43:13.027Z,12.18
2023-03-06T18:46:16.165Z,14.15
2023-03-06T18:49:20.073Z,17.00
2023-03-06T18:52:23.682Z,16.02
2023-03-06T18:55:26.716Z,20.33
2023-03-06T18:58:30.115Z,15.98
2023-03-06T19:01:34.096Z,16.05
2023-03-06T19:04:38.135Z,13.93
2023-03-06T19:07:42.208Z,14.70
2023-03-06T19:10:47.100Z,19.38
2023-03-06T19:13:50.417Z,19.75
2023-03-06T19:16:53.502Z,15.73
2023-03-06T19:19:56.938Z,17.43
2023-03-06T19:23:00.328Z,18.73
2023-03-06T19:26:03.943Z,15.80
2023-03-06T19:29:07.476Z,19.33
2023-03-06T19:32:10.666Z,16.42
2023-03-06T19:35:13.784Z,23.03
2023-03-06T19:38:16.782Z,22.35
2023-03-06T19:41:19.733Z,18.67
2023-03-06T19:44:24.546Z,20.92
2023-03-06T19:47:28.617Z,22.63
2023-03-06T19:50:31.840Z,22.13
2023-03-06T19:53:38.973Z,24.23
2023-03-06T19:56:42.428Z,23.35
2023-03-06T19:59:52.173Z,29.77
2023-03-06T20:02:55.944Z,23.90
2023-03-06T20:05:59.035Z,26.60
2023-03-06T20:09:04.712Z,24.98
2023-03-06T20:12:08.331Z,23.83
2023-03-06T20:15:11.645Z,28.55
2023-03-06T20:18:15.200Z,30.20
2023-03-06T20:21:18.261Z,31.30
2023-03-06T20:24:21.118Z,29.15
2023-03-06T20:27:24.159Z,36.95
2023-03-06T20:30:36.663Z,36.85
2023-03-06T20:33:41.117Z,40.50
2023-03-06T20:36:44.574Z,39.47
2023-03-06T20:39:47.960Z,43.88
2023-03-06T20:42:51.069Z,48.70
2023-03-06T20:45:59.398Z,44.00
2023-03-06T20:49:02.590Z,41.30
2023-03-06T20:52:05.581Z,48.67
2023-03-06T20:55:09.116Z,35.08
2023-03-06T20:58:12.036Z,33.83
2023-03-06T21:01:26.821Z,25.17
2023-03-06T21:04:29.958Z,29.52
2023-03-06T21:07:32.837Z,31.70
2023-03-06T21:10:38.084Z,25.90
2023-03-06T21:13:40.969Z,26.17
2023-03-06T21:16:44.678Z,27.30
2023-03-06T21:19:47.671Z,24.08
2023-03-06T21:22:52.077Z,20.27
2023-03-06T21:25:54.841Z,22.15
2023-03-06T21:28:59.056Z,15.02
2023-03-06T21:32:01.855Z,17.15
2023-03-06T21:35:04.977Z,15.02
2023-03-06T21:38:08.293Z,13.23
2023-03-06T21:41:16.824Z,14.25
2023-03-06T21:44:19.888Z,20.50
2023-03-06T21:47:22.647Z,30.77
2023-03-06T21:50:26.127Z,28.65
2023-03-06T21:53:28.828Z,31.60
2023-03-06T21:56:33.641Z,24.17
2023-03-06T21:59:37.880Z,19.65
2023-03-06T22:02:40.789Z,27.40
2023-03-06T22:05:44.615Z,27.23
2023-03-06T22:08:47.720Z,18.77
2023-03-06T22:11:50.478Z,18.83
2023-03-06T22:14:53.244Z,20.55
2023-03-06T22:17:55.991Z,16.38
2023-03-06T22:20:59.246Z,18.50
2023-03-06T22:24:01.974Z,17.43
2023-03-06T22:27:04.993Z,19.23
2023-03-06T22:30:08.515Z,17.48
2023-03-06T22:33:11.583Z,18.83
2023-03-06T22:36:15.828Z,17.20
2023-03-06T22:39:19.074Z,32.27
2023-03-06T22:42:21.909Z,27.92
2023-03-06T22:45:24.857Z,26.48
2023-03-06T22:48:28.034Z,30.98
2023-03-06T22:51:31.107Z,21.58
2023-03-06T22:54:33.886Z,19.07
2023-03-06T22:57:36.628Z,17.02
2023-03-06T23:00:39.449Z,19.65
2023-03-06T23:03:44.849Z,18.52
2023-03-06T23:06:47.770Z,20.75
2023-03-06T23:09:50.602Z,23.53
2023-03-06T23:13:12.147Z,19.42
2023-03-06T23:16:34.053Z,19.77
2023-03-06T23:19:55.749Z,21.40
2023-03-06T23:23:17.212Z,16.35
2023-03-06T23:26:22.390Z,19.37
2023-03-06T23:29:25.474Z,21.10
2023-03-06T23:32:28.354Z,19.80
2023-03-06T23:35:33.617Z,18.40
2023-03-06T23:38:37.230Z,22.83
2023-03-06T23:41:40.090Z,25.87
2023-03-06T23:44:42.966Z,20.13
2023-03-06T23:47:45.900Z,20.40
2023-03-06T23:50:48.825Z,21.50
2023-03-06T23:54:00.062Z,29.60
2023-03-06T23:57:02.789Z,28.13
